createdAt,value
2018-08-28T00:01:23.948Z,1.13
2018-08-28T00:03:53.278Z,1.53
2018-08-28T00:06:22.061Z,1.77
2018-08-28T00:08:51.289Z,1.63
2018-08-28T00:11:19.882Z,1.63
2018-08-28T00:13:48.559Z,1.20
2018-08-28T00:16:17.289Z,1.40
2018-08-28T00:18:45.904Z,1.63
2018-08-28T00:21:14.517Z,1.40
2018-08-28T00:23:43.120Z,1.80
2018-08-28T00:26:11.681Z,1.40
2018-08-28T00:28:40.359Z,1.30
2018-08-28T00:31:09.876Z,1.10
2018-08-28T00:33:38.516Z,1.20
2018-08-28T00:36:07.112Z,1.53
2018-08-28T00:38:35.964Z,1.10
2018-08-28T00:41:05.111Z,1.07
2018-08-28T00:43:33.869Z,1.10
2018-08-28T00:46:02.324Z,1.00
2018-08-28T00:48:30.822Z,1.47
2018-08-28T00:50:59.557Z,1.13
2018-08-28T00:53:28.778Z,1.07
2018-08-28T00:55:57.239Z,1.93
2018-08-28T00:58:27.079Z,2.00
2018-08-28T01:00:55.705Z,1.13
2018-08-28T01:03:24.322Z,2.13
2018-08-28T01:05:52.773Z,1.93
2018-08-28T01:08:21.248Z,1.40
2018-08-28T01:10:50.852Z,1.67
2018-08-28T01:13:19.453Z,1.40
2018-08-28T01:15:48.095Z,2.20
2018-08-28T01:18:16.668Z,1.80
2018-08-28T01:20:45.256Z,2.00
2018-08-28T01:23:13.768Z,1.63
2018-08-28T01:25:42.514Z,3.40
2018-08-28T01:28:11.852Z,2.03
2018-08-28T01:30:41.087Z,1.77
2018-08-28T01:33:09.571Z,1.40
2018-08-28T01:35:38.051Z,1.43
2018-08-28T01:38:06.623Z,1.30
2018-08-28T01:40:35.148Z,1.30
2018-08-28T01:43:07.890Z,1.50
2018-08-28T01:45:36.356Z,1.67
2018-08-28T01:48:05.124Z,1.57
2018-08-28T01:50:33.593Z,2.77
2018-08-28T01:53:02.440Z,2.97
2018-08-28T01:55:31.047Z,1.80
2018-08-28T01:57:59.830Z,2.87
2018-08-28T02:00:28.292Z,3.30
2018-08-28T02:02:57.166Z,2.87
2018-08-28T02:05:25.686Z,2.40
2018-08-28T02:07:54.162Z,2.63
2018-08-28T02:10:22.654Z,3.43
2018-08-28T02:12:51.120Z,3.20
2018-08-28T02:15:19.802Z,4.03
2018-08-28T02:17:48.319Z,3.20
2018-08-28T02:20:17.447Z,2.97
2018-08-28T02:22:46.196Z,3.77
2018-08-28T02:25:14.785Z,2.83
2018-08-28T02:27:43.310Z,2.57
2018-08-28T02:30:11.811Z,3.87
2018-08-28T02:32:40.505Z,2.63
2018-08-28T02:35:09.163Z,2.13
2018-08-28T02:37:37.778Z,2.33
2018-08-28T02:40:06.561Z,2.10
2018-08-28T02:42:35.122Z,2.40
2018-08-28T02:45:03.749Z,3.17
2018-08-28T02:47:33.137Z,2.40
2018-08-28T02:50:01.717Z,2.10
2018-08-28T02:52:30.286Z,1.97
2018-08-28T02:54:58.809Z,3.73
2018-08-28T02:57:27.416Z,2.77
2018-08-28T02:59:56.001Z,2.60
2018-08-28T03:02:24.485Z,2.97
2018-08-28T03:04:54.098Z,2.10
2018-08-28T03:07:22.758Z,4.00
2018-08-28T03:09:51.973Z,4.23
2018-08-28T03:12:20.406Z,2.80
2018-08-28T03:14:48.949Z,3.00
2018-08-28T03:17:18.761Z,2.07
2018-08-28T03:19:47.854Z,2.40
2018-08-28T03:22:16.436Z,2.07
2018-08-28T03:24:45.026Z,2.33
2018-08-28T03:27:13.591Z,2.30
2018-08-28T03:29:42.949Z,3.90
2018-08-28T03:32:11.637Z,4.53
2018-08-28T03:34:40.385Z,5.60
2018-08-28T03:37:09.119Z,2.50
2018-08-28T03:39:37.625Z,3.03
2018-08-28T03:42:06.662Z,4.97
2018-08-28T03:44:35.232Z,3.00
2018-08-28T03:47:03.863Z,3.37
2018-08-28T03:49:32.397Z,4.77
2018-08-28T03:52:01.096Z,4.20
2018-08-28T03:54:29.604Z,2.47
2018-08-28T03:56:58.364Z,5.43
2018-08-28T03:59:27.236Z,2.60
2018-08-28T04:01:55.895Z,5.37
2018-08-28T04:07:48.531Z,2.27
2018-08-28T04:10:17.233Z,2.77
2018-08-28T04:12:45.768Z,3.27
2018-08-28T04:15:15.253Z,4.70
2018-08-28T04:17:51.195Z,3.97
2018-08-28T04:20:21.054Z,3.30
2018-08-28T04:22:50.186Z,3.03
2018-08-28T04:25:19.181Z,2.87
2018-08-28T04:27:49.100Z,2.80
2018-08-28T04:30:18.232Z,3.10
2018-08-28T04:32:46.721Z,2.50
2018-08-28T04:35:15.234Z,3.00
2018-08-28T04:37:44.298Z,2.50
2018-08-28T04:40:12.745Z,2.60
2018-08-28T04:42:41.904Z,3.20
2018-08-28T04:45:10.689Z,2.60
2018-08-28T04:47:39.173Z,2.00
2018-08-28T04:50:07.839Z,4.47
2018-08-28T04:52:36.262Z,2.50
2018-08-28T04:55:05.516Z,2.53
2018-08-28T04:57:34.849Z,2.57
2018-08-28T05:00:03.452Z,2.93
2018-08-28T05:02:36.540Z,2.37
2018-08-28T05:05:07.428Z,2.00
2018-08-28T05:07:36.101Z,3.97
2018-08-28T05:10:05.462Z,5.43
2018-08-28T05:12:33.937Z,4.43
2018-08-28T05:15:02.562Z,2.90
2018-08-28T05:17:32.102Z,2.97
2018-08-28T05:20:01.389Z,2.67
2018-08-28T05:22:29.883Z,2.93
2018-08-28T05:24:58.521Z,2.80
2018-08-28T05:27:27.543Z,2.83
2018-08-28T05:29:56.112Z,2.97
2018-08-28T05:32:24.639Z,3.00
2018-08-28T05:34:53.123Z,3.57
2018-08-28T05:37:21.783Z,2.60
2018-08-28T05:39:50.250Z,5.20
2018-08-28T05:42:19.005Z,4.17
2018-08-28T05:44:47.481Z,4.17
2018-08-28T05:47:16.017Z,3.60
2018-08-28T05:49:44.477Z,3.13
2018-08-28T05:52:13.129Z,3.97
2018-08-28T05:54:41.625Z,3.13
2018-08-28T05:57:10.278Z,4.10
2018-08-28T05:59:38.765Z,4.30
2018-08-28T06:02:07.298Z,4.33
2018-08-28T06:04:35.760Z,4.70
2018-08-28T06:07:10.687Z,4.43
2018-08-28T06:09:40.227Z,3.47
2018-08-28T06:12:08.794Z,4.23
2018-08-28T06:14:37.254Z,4.27
2018-08-28T06:17:05.782Z,7.20
2018-08-28T06:19:34.294Z,4.63
2018-08-28T06:22:02.921Z,4.33
2018-08-28T06:24:31.401Z,4.17
2018-08-28T06:26:59.933Z,4.90
2018-08-28T06:29:28.423Z,6.50
2018-08-28T06:31:57.028Z,4.13
2018-08-28T06:34:25.672Z,3.77
2018-08-28T06:36:54.207Z,3.67
2018-08-28T06:39:22.852Z,5.00
2018-08-28T06:41:51.347Z,4.30
2018-08-28T06:44:20.426Z,6.20
2018-08-28T06:46:48.891Z,4.23
2018-08-28T06:49:17.309Z,4.03
2018-08-28T06:51:46.177Z,2.90
2018-08-28T06:54:15.290Z,7.20
2018-08-28T06:56:43.823Z,5.27
2018-08-28T06:59:12.521Z,6.30
2018-08-28T07:01:41.078Z,4.63
2018-08-28T07:04:09.720Z,6.03
2018-08-28T07:06:38.146Z,5.87
2018-08-28T07:09:07.837Z,4.17
2018-08-28T07:11:36.509Z,5.30
2018-08-28T07:14:06.032Z,4.03
2018-08-28T07:16:34.607Z,4.90
2018-08-28T07:19:03.367Z,5.20
2018-08-28T07:21:31.923Z,4.70
2018-08-28T07:24:00.519Z,4.27
2018-08-28T07:26:29.036Z,5.10
2018-08-28T07:28:57.640Z,5.57
2018-08-28T07:31:26.252Z,4.70
2018-08-28T07:33:54.646Z,4.57
2018-08-28T07:36:23.201Z,6.47
2018-08-28T07:38:51.756Z,4.57
2018-08-28T07:41:20.325Z,6.33
2018-08-28T07:43:48.977Z,5.73
2018-08-28T07:46:17.511Z,5.20
2018-08-28T07:48:46.162Z,5.27
2018-08-28T07:51:14.697Z,4.87
2018-08-28T07:53:44.317Z,5.80
2018-08-28T07:56:13.510Z,5.00
2018-08-28T07:58:42.153Z,6.00
2018-08-28T08:01:10.674Z,5.23
2018-08-28T08:03:40.186Z,5.17
2018-08-28T08:06:08.799Z,5.70
2018-08-28T08:08:37.321Z,5.27
2018-08-28T08:11:06.620Z,5.37
2018-08-28T08:13:35.214Z,4.33
2018-08-28T08:16:03.759Z,4.83
2018-08-28T08:18:32.276Z,4.80
2018-08-28T08:21:00.882Z,3.90
2018-08-28T08:23:29.440Z,5.57
2018-08-28T08:26:04.597Z,5.93
2018-08-28T08:28:33.125Z,5.63
2018-08-28T08:31:01.702Z,5.50
2018-08-28T08:33:30.250Z,6.37
2018-08-28T08:35:58.872Z,5.67
2018-08-28T08:38:27.378Z,5.70
2018-08-28T08:40:55.883Z,4.83
2018-08-28T08:43:24.509Z,4.90
2018-08-28T08:45:53.083Z,5.33
2018-08-28T08:48:22.323Z,5.77
2018-08-28T08:50:50.918Z,4.55
2018-08-28T08:53:19.476Z,5.27
2018-08-28T08:55:48.117Z,6.65
2018-08-28T08:58:16.695Z,5.37
2018-08-28T09:00:45.552Z,4.83
2018-08-28T09:03:14.077Z,6.40
2018-08-28T09:05:42.625Z,5.80
2018-08-28T09:08:11.211Z,5.80
2018-08-28T09:10:39.691Z,4.92
2018-08-28T09:13:08.280Z,4.90
2018-08-28T09:15:37.601Z,6.33
2018-08-28T09:18:13.085Z,6.58
2018-08-28T09:20:41.584Z,6.60
2018-08-28T09:23:10.276Z,6.80
2018-08-28T09:25:38.794Z,6.08
2018-08-28T09:28:07.546Z,4.92
2018-08-28T09:30:36.050Z,6.08
2018-08-28T09:33:04.591Z,6.08
2018-08-28T09:35:33.057Z,6.53
2018-08-28T09:38:01.582Z,6.75
2018-08-28T09:40:30.699Z,7.22
2018-08-28T09:42:59.502Z,6.85
2018-08-28T09:45:28.162Z,7.22
2018-08-28T09:47:57.137Z,6.55
2018-08-28T09:50:26.083Z,5.80
2018-08-28T09:52:54.909Z,6.42
2018-08-28T09:55:23.882Z,6.22
2018-08-28T09:57:53.232Z,6.37
2018-08-28T10:00:26.973Z,6.33
2018-08-28T10:02:56.282Z,5.95
2018-08-28T10:05:25.560Z,7.10
2018-08-28T10:07:54.267Z,6.70
2018-08-28T10:10:26.455Z,7.03
2018-08-28T10:13:06.075Z,6.80
2018-08-28T10:15:36.506Z,6.92
2018-08-28T10:18:05.194Z,8.20
2018-08-28T10:20:34.513Z,7.00
2018-08-28T10:23:03.163Z,6.33
2018-08-28T10:25:32.085Z,6.55
2018-08-28T10:28:00.631Z,7.30
2018-08-28T10:30:29.307Z,7.42
2018-08-28T10:32:57.721Z,5.83
2018-08-28T10:35:27.188Z,5.67
2018-08-28T10:37:55.889Z,5.58
2018-08-28T10:40:24.597Z,6.42
2018-08-28T10:42:53.826Z,8.05
2018-08-28T10:45:22.789Z,5.65
2018-08-28T10:47:51.317Z,7.15
2018-08-28T10:50:20.188Z,7.90
2018-08-28T10:52:50.686Z,7.50
2018-08-28T10:55:19.156Z,7.55
2018-08-28T10:57:48.388Z,7.95
2018-08-28T11:00:16.894Z,8.18
2018-08-28T11:02:45.453Z,9.40
2018-08-28T11:05:13.893Z,9.08
2018-08-28T11:07:42.563Z,7.55
2018-08-28T11:10:11.277Z,7.85
2018-08-28T11:12:40.259Z,7.20
2018-08-28T11:15:09.037Z,8.18
2018-08-28T11:17:38.081Z,6.72
2018-08-28T11:20:06.936Z,6.47
2018-08-28T11:22:35.553Z,7.05
2018-08-28T11:25:04.230Z,7.67
2018-08-28T11:27:33.412Z,7.85
2018-08-28T11:30:01.970Z,7.78
2018-08-28T11:32:30.452Z,8.08
2018-08-28T11:34:59.608Z,6.87
2018-08-28T11:37:28.695Z,7.53
2018-08-28T11:39:57.973Z,8.40
2018-08-28T11:42:26.469Z,7.42
2018-08-28T11:44:55.281Z,8.38
2018-08-28T11:47:23.957Z,7.95
2018-08-28T11:49:52.450Z,8.80
2018-08-28T11:52:21.012Z,8.10
2018-08-28T11:54:49.603Z,7.05
2018-08-28T11:57:18.238Z,9.28
2018-08-28T11:59:46.740Z,7.80
2018-08-28T12:02:15.367Z,8.05
2018-08-28T12:04:43.868Z,7.17
2018-08-28T12:07:12.408Z,8.43
2018-08-28T12:09:41.655Z,8.73
2018-08-28T12:12:10.731Z,8.35
2018-08-28T12:14:39.785Z,9.33
2018-08-28T12:17:08.346Z,8.48
2018-08-28T12:19:37.100Z,8.75
2018-08-28T12:22:05.710Z,6.95
2018-08-28T12:24:34.320Z,7.10
2018-08-28T12:27:02.845Z,8.30
2018-08-28T12:29:31.472Z,8.78
2018-08-28T12:31:59.954Z,8.28
2018-08-28T12:34:28.568Z,8.35
2018-08-28T12:36:57.151Z,8.05
2018-08-28T12:39:25.942Z,8.33
2018-08-28T12:41:54.978Z,7.87
2018-08-28T12:44:23.498Z,7.47
2018-08-28T12:46:52.018Z,8.15
2018-08-28T12:49:20.722Z,9.45
2018-08-28T12:51:50.202Z,8.68
2018-08-28T12:54:18.798Z,8.43
2018-08-28T12:56:47.612Z,8.08
2018-08-28T12:59:16.081Z,8.05
2018-08-28T13:01:44.793Z,6.85
2018-08-28T13:04:13.383Z,8.43
2018-08-28T13:06:41.876Z,7.80
2018-08-28T13:09:10.934Z,8.05
2018-08-28T13:11:39.586Z,8.65
2018-08-28T13:14:08.127Z,7.00
2018-08-28T13:16:36.655Z,6.42
2018-08-28T13:19:05.231Z,7.97
2018-08-28T13:21:33.814Z,8.58
2018-08-28T13:24:02.346Z,7.85
2018-08-28T13:26:31.666Z,7.55
2018-08-28T13:29:00.798Z,7.22
2018-08-28T13:31:30.909Z,8.80
2018-08-28T13:34:00.792Z,8.15
2018-08-28T13:36:29.273Z,6.33
2018-08-28T13:38:57.920Z,8.33
2018-08-28T13:41:26.456Z,8.50
2018-08-28T13:43:55.168Z,8.85
2018-08-28T13:46:23.658Z,7.12
2018-08-28T13:48:52.414Z,7.33
2018-08-28T13:51:20.951Z,6.58
2018-08-28T13:53:49.707Z,8.30
2018-08-28T13:56:18.190Z,8.63
2018-08-28T13:58:46.810Z,7.92
2018-08-28T14:01:15.454Z,5.90
2018-08-28T14:03:45.581Z,7.05
2018-08-28T14:06:14.689Z,8.18
2018-08-28T14:08:43.205Z,7.78
2018-08-28T14:11:11.796Z,7.58
2018-08-28T14:13:40.364Z,8.35
2018-08-28T14:16:09.778Z,7.67
2018-08-28T14:18:38.373Z,9.53
2018-08-28T14:21:07.070Z,8.18
2018-08-28T14:23:35.671Z,8.10
2018-08-28T14:26:07.547Z,8.35
2018-08-28T14:28:36.252Z,7.62
2018-08-28T14:31:04.891Z,8.58
2018-08-28T14:33:33.420Z,7.20
2018-08-28T14:36:02.077Z,7.65
2018-08-28T14:38:31.460Z,8.10
2018-08-28T14:41:00.065Z,8.13
2018-08-28T14:43:28.651Z,6.50
2018-08-28T14:46:03.980Z,8.13
2018-08-28T14:48:32.546Z,8.45
2018-08-28T14:51:01.352Z,8.03
2018-08-28T14:53:30.566Z,7.62
2018-08-28T14:55:59.238Z,7.45
2018-08-28T14:58:27.933Z,7.62
2018-08-28T15:00:56.545Z,8.53
2018-08-28T15:03:25.909Z,8.28
2018-08-28T15:05:54.446Z,8.30
2018-08-28T15:08:23.672Z,7.92
2018-08-28T15:10:52.406Z,8.75
2018-08-28T15:13:21.022Z,8.43
2018-08-28T15:15:49.576Z,7.80
2018-08-28T15:18:18.463Z,8.15
2018-08-28T15:20:47.349Z,7.08
2018-08-28T15:23:15.801Z,8.25
2018-08-28T15:25:44.311Z,8.28
2018-08-28T15:28:12.869Z,8.30
2018-08-28T15:30:41.421Z,7.70
2018-08-28T15:33:10.264Z,7.25
2018-08-28T15:35:39.804Z,6.83
2018-08-28T15:38:08.329Z,8.85
2018-08-28T15:40:37.473Z,8.20
2018-08-28T15:43:06.270Z,8.15
2018-08-28T15:45:34.777Z,8.65
2018-08-28T15:48:03.483Z,7.83
2018-08-28T15:50:31.995Z,8.00
2018-08-28T15:53:00.583Z,7.87
2018-08-28T15:55:29.890Z,8.65
2018-08-28T15:57:59.581Z,6.65
2018-08-28T16:00:28.314Z,8.08
2018-08-28T16:02:56.982Z,7.92
2018-08-28T16:05:26.139Z,8.45
2018-08-28T16:07:54.880Z,7.45
2018-08-28T16:10:23.466Z,7.37
2018-08-28T16:12:51.993Z,8.78
2018-08-28T16:15:21.259Z,8.73
2018-08-28T16:17:49.847Z,9.43
2018-08-28T16:20:18.516Z,6.97
2018-08-28T16:22:52.782Z,8.53
2018-08-28T16:25:21.284Z,8.55
2018-08-28T16:27:50.239Z,6.92
2018-08-28T16:30:19.094Z,9.13
2018-08-28T16:32:47.804Z,8.38
2018-08-28T16:35:16.330Z,8.75
2018-08-28T16:37:45.286Z,6.20
2018-08-28T16:40:13.849Z,8.78
2018-08-28T16:42:42.458Z,9.13
2018-08-28T16:45:11.007Z,8.80
2018-08-28T16:47:39.653Z,8.13
2018-08-28T16:50:08.306Z,8.93
2018-08-28T16:52:36.831Z,7.67
2018-08-28T16:55:05.589Z,7.92
2018-08-28T16:57:34.352Z,8.30
2018-08-28T17:00:03.554Z,8.58
2018-08-28T17:02:32.926Z,8.43
2018-08-28T17:05:01.534Z,8.10
2018-08-28T17:07:30.202Z,8.60
2018-08-28T17:09:59.611Z,8.18
2018-08-28T17:12:28.173Z,8.18
2018-08-28T17:14:56.847Z,8.25
2018-08-28T17:17:25.314Z,8.68
2018-08-28T17:19:53.970Z,8.63
2018-08-28T17:22:22.502Z,7.58
2018-08-28T17:24:50.976Z,8.18
2018-08-28T17:27:19.711Z,7.55
2018-08-28T17:29:48.283Z,5.70
2018-08-28T17:32:17.723Z,8.60
2018-08-28T17:34:46.327Z,7.42
2018-08-28T17:37:14.917Z,7.33
2018-08-28T17:39:44.139Z,7.10
2018-08-28T17:42:12.835Z,6.97
2018-08-28T17:44:41.427Z,7.12
2018-08-28T17:47:10.002Z,6.25
2018-08-28T17:49:39.220Z,7.17
2018-08-28T17:52:07.927Z,6.47
2018-08-28T17:54:36.499Z,6.72
2018-08-28T17:57:05.221Z,7.00
2018-08-28T17:59:33.667Z,7.30
2018-08-28T18:02:02.220Z,6.05
2018-08-28T18:04:30.891Z,6.30
2018-08-28T18:06:59.813Z,7.33
2018-08-28T18:09:28.373Z,5.10
2018-08-28T18:11:56.946Z,7.08
2018-08-28T18:14:26.339Z,5.17
2018-08-28T18:16:55.534Z,7.72
2018-08-28T18:19:24.174Z,8.95
2018-08-28T18:21:52.844Z,7.53
2018-08-28T18:24:21.337Z,8.58
2018-08-28T18:26:50.206Z,8.53
2018-08-28T18:29:19.768Z,7.70
2018-08-28T18:31:49.396Z,6.60
2018-08-28T18:34:18.098Z,4.55
2018-08-28T18:36:46.666Z,8.50
2018-08-28T18:39:15.697Z,6.07
2018-08-28T18:41:44.466Z,6.83
2018-08-28T18:44:13.077Z,7.87
2018-08-28T18:46:41.907Z,6.92
2018-08-28T18:49:10.455Z,6.10
2018-08-28T18:51:38.996Z,6.53
2018-08-28T18:54:07.576Z,5.95
2018-08-28T18:56:36.196Z,6.23
2018-08-28T18:59:04.893Z,5.53
2018-08-28T19:01:33.802Z,4.03
2018-08-28T19:04:02.807Z,4.30
2018-08-28T19:06:32.246Z,4.77
2018-08-28T19:09:00.994Z,4.90
2018-08-28T19:11:29.502Z,7.53
2018-08-28T19:13:58.093Z,5.47
2018-08-28T19:16:26.712Z,4.43
2018-08-28T19:18:56.136Z,7.03
2018-08-28T19:21:24.758Z,5.70
2018-08-28T19:23:53.858Z,5.07
2018-08-28T19:26:22.689Z,5.13
2018-08-28T19:28:51.243Z,9.23
2018-08-28T19:31:19.826Z,5.40
2018-08-28T19:33:48.443Z,8.03
2018-08-28T19:36:17.560Z,5.50
2018-08-28T19:38:46.082Z,7.60
2018-08-28T19:41:15.302Z,5.20
2018-08-28T19:43:43.810Z,4.63
2018-08-28T19:46:12.463Z,7.57
2018-08-28T19:48:47.723Z,5.03
2018-08-28T19:51:17.120Z,4.83
2018-08-28T19:53:45.767Z,4.83
2018-08-28T19:56:14.394Z,4.70
2018-08-28T19:58:43.080Z,4.10
2018-08-28T20:01:12.490Z,4.00
2018-08-28T20:03:41.053Z,3.93
2018-08-28T20:06:09.674Z,5.30
2018-08-28T20:08:38.308Z,5.20
2018-08-28T20:11:06.966Z,7.80
2018-08-28T20:13:35.531Z,5.33
2018-08-28T20:16:04.385Z,5.70
2018-08-28T20:18:33.368Z,5.27
2018-08-28T20:21:02.906Z,5.00
2018-08-28T20:23:31.406Z,5.23
2018-08-28T20:26:00.711Z,7.37
2018-08-28T20:28:29.301Z,6.77
2018-08-28T20:30:58.198Z,7.63
2018-08-28T20:33:27.025Z,5.17
2018-08-28T20:35:55.565Z,4.50
2018-08-28T20:38:24.295Z,4.00
2018-08-28T20:40:52.845Z,3.60
2018-08-28T20:43:21.961Z,7.30
2018-08-28T20:45:50.482Z,7.73
2018-08-28T20:48:19.339Z,5.27
2018-08-28T20:50:47.964Z,5.47
2018-08-28T20:53:17.436Z,6.83
2018-08-28T20:55:46.714Z,6.13
2018-08-28T20:58:15.626Z,4.43
2018-08-28T21:00:44.211Z,5.63
2018-08-28T21:03:12.838Z,4.97
2018-08-28T21:05:41.388Z,5.27
2018-08-28T21:08:10.267Z,4.60
2018-08-28T21:10:39.231Z,5.60
2018-08-28T21:13:08.107Z,4.87
2018-08-28T21:15:37.240Z,4.33
2018-08-28T21:18:05.778Z,4.60
2018-08-28T21:20:35.497Z,4.87
2018-08-28T21:23:04.553Z,6.37
2018-08-28T21:25:33.409Z,5.47
2018-08-28T21:28:02.098Z,9.20
2018-08-28T21:30:30.758Z,5.50
2018-08-28T21:32:59.288Z,6.33
2018-08-28T21:35:27.846Z,5.10
2018-08-28T21:37:56.478Z,6.13
2018-08-28T21:40:24.996Z,5.73
2018-08-28T21:42:53.649Z,5.97
2018-08-28T21:45:22.192Z,7.20
2018-08-28T21:47:51.065Z,5.43
2018-08-28T21:50:19.541Z,6.80
2018-08-28T21:52:48.132Z,6.70
2018-08-28T21:55:17.538Z,6.83
2018-08-28T21:57:46.697Z,5.47
2018-08-28T22:00:15.365Z,4.47
2018-08-28T22:02:43.992Z,10.13
2018-08-28T22:05:12.821Z,5.27
2018-08-28T22:07:43.161Z,6.80
2018-08-28T22:10:11.953Z,8.20
2018-08-28T22:12:41.073Z,6.77
2018-08-28T22:15:13.554Z,5.67
2018-08-28T22:17:42.594Z,9.00
2018-08-28T22:20:11.917Z,5.67
2018-08-28T22:22:40.576Z,4.80
2018-08-28T22:25:09.793Z,6.33
2018-08-28T22:27:38.445Z,6.07
2018-08-28T22:30:08.266Z,5.80
2018-08-28T22:32:36.817Z,5.13
2018-08-28T22:35:05.599Z,5.03
2018-08-28T22:37:34.610Z,4.00
2018-08-28T22:40:03.742Z,5.87
2018-08-28T22:42:32.235Z,5.10
2018-08-28T22:45:01.041Z,3.83
2018-08-28T22:47:29.529Z,4.37
2018-08-28T22:49:58.507Z,7.83
2018-08-28T22:52:30.037Z,7.60
2018-08-28T22:54:58.655Z,8.47
2018-08-28T22:57:27.662Z,6.77
2018-08-28T22:59:56.141Z,6.90
2018-08-28T23:02:24.830Z,6.90
2018-08-28T23:04:53.324Z,5.60
2018-08-28T23:07:21.921Z,8.67
2018-08-28T23:09:51.493Z,5.30
2018-08-28T23:12:20.117Z,4.90
2018-08-28T23:14:48.703Z,7.60
2018-08-28T23:17:20.278Z,7.50
2018-08-28T23:19:48.945Z,9.03
2018-08-28T23:22:18.598Z,5.30
2018-08-28T23:24:47.925Z,8.97
2018-08-28T23:27:16.474Z,4.83
2018-08-28T23:29:44.984Z,4.87
2018-08-28T23:32:13.615Z,7.67
2018-08-28T23:34:43.008Z,7.13
2018-08-28T23:37:11.933Z,7.33
2018-08-28T23:39:40.421Z,6.80
2018-08-28T23:42:08.971Z,8.13
2018-08-28T23:44:37.426Z,6.43
2018-08-28T23:47:06.215Z,6.60
2018-08-28T23:49:34.809Z,6.47
2018-08-28T23:52:03.336Z,4.60
2018-08-28T23:54:31.875Z,4.83
2018-08-28T23:57:00.378Z,5.07
2018-08-28T23:59:28.958Z,6.00
